createdAt,value
2019-01-25T00:00:20.325Z,23.00
2019-01-25T00:02:48.826Z,23.00
2019-01-25T00:05:17.136Z,23.00
2019-01-25T00:07:45.381Z,23.00
2019-01-25T00:10:13.621Z,23.00
2019-01-25T00:12:41.860Z,23.00
2019-01-25T00:15:13.718Z,23.00
2019-01-25T00:17:41.951Z,23.00
2019-01-25T00:20:13.885Z,23.00
2019-01-25T00:22:42.121Z,23.00
2019-01-25T00:25:10.373Z,22.90
2019-01-25T00:27:39.180Z,22.90
2019-01-25T00:30:15.477Z,22.90
2019-01-25T00:32:43.709Z,22.90
2019-01-25T00:35:11.954Z,22.90
2019-01-25T00:37:40.188Z,22.90
2019-01-25T00:40:20.529Z,22.90
2019-01-25T00:42:48.761Z,22.90
2019-01-25T00:45:17.007Z,22.90
2019-01-25T00:47:45.705Z,22.90
2019-01-25T00:50:19.496Z,22.90
2019-01-25T00:52:48.470Z,22.90
2019-01-25T00:55:16.719Z,22.90
2019-01-25T00:57:44.957Z,22.80
2019-01-25T01:00:16.536Z,22.80
2019-01-25T01:02:44.841Z,22.80
2019-01-25T01:05:13.820Z,22.80
2019-01-25T01:07:42.056Z,22.80
2019-01-25T01:10:14.147Z,22.80
2019-01-25T01:12:41.197Z,22.80
2019-01-25T01:15:12.443Z,22.80
2019-01-25T01:17:40.669Z,22.80
2019-01-25T01:20:12.469Z,22.80
2019-01-25T01:22:40.693Z,22.80
2019-01-25T01:25:09.585Z,22.80
2019-01-25T01:27:37.813Z,22.80
2019-01-25T01:30:14.308Z,22.80
2019-01-25T01:32:42.547Z,22.80
2019-01-25T01:35:10.781Z,22.80
2019-01-25T01:37:39.012Z,22.80
2019-01-25T01:40:13.069Z,22.80
2019-01-25T01:42:41.586Z,22.80
2019-01-25T01:45:09.890Z,22.70
2019-01-25T01:47:38.121Z,22.80
2019-01-25T01:50:09.725Z,22.80
2019-01-25T01:52:38.637Z,22.80
2019-01-25T01:55:07.541Z,22.80
2019-01-25T01:57:35.781Z,22.80
2019-01-25T02:00:10.077Z,22.80
2019-01-25T02:02:38.316Z,22.70
2019-01-25T02:05:08.195Z,22.70
2019-01-25T02:07:36.437Z,22.70
2019-01-25T02:10:07.924Z,22.70
2019-01-25T02:12:36.166Z,22.70
2019-01-25T02:15:06.943Z,22.70
2019-01-25T02:17:35.181Z,22.70
2019-01-25T02:20:04.585Z,22.70
2019-01-25T02:22:32.833Z,22.70
2019-01-25T02:25:01.065Z,22.70
2019-01-25T02:27:29.304Z,22.70
2019-01-25T02:29:57.545Z,22.70
2019-01-25T02:32:25.855Z,22.70
2019-01-25T02:34:54.102Z,22.70
2019-01-25T02:37:22.336Z,22.70
2019-01-25T02:39:50.567Z,22.70
2019-01-25T02:42:18.821Z,22.70
2019-01-25T02:44:47.623Z,22.70
2019-01-25T02:47:15.861Z,22.70
2019-01-25T02:49:44.094Z,22.70
2019-01-25T02:52:12.326Z,22.70
2019-01-25T02:54:40.575Z,22.70
2019-01-25T02:57:08.803Z,22.70
2019-01-25T02:59:37.071Z,22.70
2019-01-25T03:02:05.473Z,22.70
2019-01-25T03:04:33.721Z,22.70
2019-01-25T03:07:01.962Z,22.70
2019-01-25T03:09:30.202Z,22.60
2019-01-25T03:11:58.439Z,22.70
2019-01-25T03:14:26.686Z,22.60
2019-01-25T03:16:55.585Z,22.60
2019-01-25T03:19:23.830Z,22.60
2019-01-25T03:21:52.063Z,22.70
2019-01-25T03:24:20.306Z,22.60
2019-01-25T03:26:48.536Z,22.60
2019-01-25T03:29:17.451Z,22.60
2019-01-25T03:31:45.683Z,22.60
2019-01-25T03:34:13.930Z,22.60
2019-01-25T03:36:42.158Z,22.60
2019-01-25T03:39:10.405Z,22.60
2019-01-25T03:41:38.630Z,22.60
2019-01-25T03:44:06.870Z,22.60
2019-01-25T03:46:35.105Z,22.60
2019-01-25T03:49:03.367Z,22.60
2019-01-25T03:51:31.586Z,22.60
2019-01-25T03:53:59.842Z,22.60
2019-01-25T03:56:28.069Z,22.60
2019-01-25T03:58:56.314Z,22.60
2019-01-25T04:01:24.589Z,22.60
2019-01-25T04:03:52.833Z,22.60
2019-01-25T04:06:21.069Z,22.60
2019-01-25T04:08:49.354Z,22.60
2019-01-25T04:11:17.606Z,22.60
2019-01-25T04:13:45.905Z,22.60
2019-01-25T04:16:14.177Z,22.60
2019-01-25T04:18:42.403Z,22.60
2019-01-25T04:21:10.967Z,22.60
2019-01-25T04:23:39.192Z,22.60
2019-01-25T04:26:07.470Z,22.60
2019-01-25T04:28:35.698Z,22.60
2019-01-25T04:31:03.947Z,22.60
2019-01-25T04:33:32.201Z,22.60
2019-01-25T04:36:00.442Z,22.60
2019-01-25T04:38:29.340Z,22.60
2019-01-25T04:40:58.253Z,22.60
2019-01-25T04:43:26.509Z,22.60
2019-01-25T04:45:54.769Z,22.50
2019-01-25T04:48:23.017Z,22.50
2019-01-25T04:50:51.602Z,22.50
2019-01-25T04:53:19.837Z,22.50
2019-01-25T04:55:48.107Z,22.60
2019-01-25T04:58:16.334Z,22.60
2019-01-25T05:00:44.582Z,22.50
2019-01-25T05:03:12.831Z,22.50
2019-01-25T05:05:41.137Z,22.50
2019-01-25T05:08:15.982Z,22.50
2019-01-25T05:10:44.325Z,22.50
2019-01-25T05:13:12.558Z,22.50
2019-01-25T05:15:40.801Z,22.50
2019-01-25T05:18:09.042Z,22.50
2019-01-25T05:20:37.281Z,22.50
2019-01-25T05:23:06.966Z,22.50
2019-01-25T05:25:35.225Z,22.50
2019-01-25T05:28:09.798Z,22.50
2019-01-25T05:30:38.296Z,22.50
2019-01-25T05:33:06.537Z,22.50
2019-01-25T05:35:36.285Z,22.50
2019-01-25T05:38:04.602Z,22.50
2019-01-25T05:40:32.835Z,22.50
2019-01-25T05:43:01.085Z,22.50
2019-01-25T05:45:29.318Z,22.50
2019-01-25T05:47:57.563Z,22.50
2019-01-25T05:50:26.069Z,22.50
2019-01-25T05:52:54.316Z,22.50
2019-01-25T05:55:22.813Z,22.50
2019-01-25T05:57:52.702Z,22.50
2019-01-25T06:00:31.817Z,22.50
2019-01-25T06:03:05.681Z,22.50
2019-01-25T06:05:34.878Z,22.50
2019-01-25T06:08:07.866Z,22.40
2019-01-25T06:10:36.340Z,22.40
2019-01-25T06:13:04.582Z,22.40
2019-01-25T06:15:32.837Z,22.50
2019-01-25T06:18:02.317Z,22.40
2019-01-25T06:20:30.552Z,22.40
2019-01-25T06:22:59.155Z,22.40
2019-01-25T06:25:27.385Z,22.40
2019-01-25T06:27:55.634Z,22.40
2019-01-25T06:30:23.865Z,22.40
2019-01-25T06:32:52.686Z,22.40
2019-01-25T06:35:20.916Z,22.40
2019-01-25T06:37:49.241Z,22.40
2019-01-25T06:40:17.505Z,22.40
2019-01-25T06:42:45.741Z,22.40
2019-01-25T06:45:13.969Z,22.40
2019-01-25T06:47:42.885Z,22.40
2019-01-25T06:50:12.662Z,22.40
2019-01-25T06:52:41.565Z,22.30
2019-01-25T06:55:09.828Z,22.10
2019-01-25T06:57:42.852Z,22.00
2019-01-25T07:00:14.865Z,22.00
2019-01-25T07:02:43.109Z,22.00
2019-01-25T07:05:11.945Z,22.00
2019-01-25T07:07:41.081Z,22.10
2019-01-25T07:10:12.430Z,22.20
2019-01-25T07:12:40.672Z,22.30
2019-01-25T07:15:10.752Z,22.40
2019-01-25T07:17:38.995Z,22.50
2019-01-25T07:20:10.765Z,22.60
2019-01-25T07:22:39.081Z,22.70
2019-01-25T07:25:09.976Z,22.80
2019-01-25T07:27:38.217Z,22.90
2019-01-25T07:30:10.000Z,23.00
2019-01-25T07:32:38.221Z,23.10
2019-01-25T07:35:08.710Z,23.10
2019-01-25T07:37:36.958Z,23.20
2019-01-25T07:40:07.147Z,23.20
2019-01-25T07:42:35.468Z,23.20
2019-01-25T07:45:06.444Z,23.20
2019-01-25T07:47:34.726Z,23.20
2019-01-25T07:50:03.447Z,23.30
2019-01-25T07:52:31.681Z,23.30
2019-01-25T07:54:59.958Z,23.30
2019-01-25T07:57:28.867Z,23.30
2019-01-25T07:59:57.102Z,23.40
2019-01-25T08:02:25.386Z,23.40
2019-01-25T08:04:53.681Z,23.40
2019-01-25T08:07:21.953Z,23.40
2019-01-25T08:09:50.313Z,23.40
2019-01-25T08:12:20.049Z,23.40
2019-01-25T08:14:48.390Z,23.50
2019-01-25T08:17:16.740Z,23.50
2019-01-25T08:19:45.127Z,23.40
2019-01-25T08:22:13.740Z,23.50
2019-01-25T08:24:41.995Z,23.50
2019-01-25T08:27:10.329Z,23.50
2019-01-25T08:29:38.644Z,23.50
2019-01-25T08:32:06.915Z,23.40
2019-01-25T08:34:35.161Z,23.40
2019-01-25T08:37:03.502Z,23.30
2019-01-25T08:39:32.323Z,23.30
2019-01-25T08:42:01.301Z,23.30
2019-01-25T08:44:29.666Z,23.30
2019-01-25T08:46:58.245Z,23.30
2019-01-25T08:49:26.533Z,23.30
2019-01-25T08:51:54.791Z,23.30
2019-01-25T08:54:23.058Z,23.30
2019-01-25T08:56:51.419Z,23.30
2019-01-25T08:59:19.739Z,23.30
2019-01-25T09:01:48.025Z,23.30
2019-01-25T09:04:16.285Z,23.30
2019-01-25T09:06:44.526Z,23.30
2019-01-25T09:09:12.773Z,23.30
2019-01-25T09:11:41.061Z,23.30
2019-01-25T09:14:09.305Z,23.30
2019-01-25T09:16:37.558Z,23.30
2019-01-25T09:19:05.793Z,23.30
2019-01-25T09:21:34.618Z,23.30
2019-01-25T09:24:02.863Z,23.30
2019-01-25T09:26:31.169Z,23.30
2019-01-25T09:28:59.414Z,23.30
2019-01-25T09:31:28.217Z,23.30
2019-01-25T09:33:56.489Z,23.30
2019-01-25T09:36:24.722Z,23.30
2019-01-25T09:38:53.550Z,23.30
2019-01-25T09:41:21.794Z,23.30
2019-01-25T09:43:50.037Z,23.30
2019-01-25T09:46:18.350Z,23.30
2019-01-25T09:48:46.593Z,23.30
2019-01-25T09:51:14.829Z,23.30
2019-01-25T09:53:43.125Z,23.30
2019-01-25T09:56:11.390Z,23.30
2019-01-25T09:58:40.989Z,23.30
2019-01-25T10:01:09.225Z,23.30
2019-01-25T10:03:37.559Z,23.30
2019-01-25T10:06:05.814Z,23.30
2019-01-25T10:08:34.057Z,23.30
2019-01-25T10:11:02.294Z,23.30
2019-01-25T10:13:30.545Z,23.30
2019-01-25T10:15:58.773Z,23.30
2019-01-25T10:18:27.129Z,23.30
2019-01-25T10:20:55.361Z,23.30
2019-01-25T10:23:24.277Z,23.30
2019-01-25T10:25:52.509Z,23.20
2019-01-25T10:28:20.757Z,23.30
2019-01-25T10:30:48.985Z,23.20
2019-01-25T10:33:17.239Z,23.30
2019-01-25T10:35:45.470Z,23.30
2019-01-25T10:38:13.790Z,23.20
2019-01-25T10:40:42.031Z,23.20
2019-01-25T10:43:10.280Z,23.20
2019-01-25T10:45:43.312Z,23.30
2019-01-25T10:48:11.558Z,23.30
2019-01-25T10:50:39.814Z,23.30
2019-01-25T10:53:08.594Z,23.30
2019-01-25T10:55:37.147Z,23.30
2019-01-25T10:58:05.944Z,23.30
2019-01-25T11:00:34.385Z,23.30
2019-01-25T11:03:02.614Z,23.30
2019-01-25T11:05:31.628Z,23.30
2019-01-25T11:08:00.540Z,23.30
2019-01-25T11:10:28.791Z,23.30
2019-01-25T11:13:01.169Z,23.30
2019-01-25T11:15:27.000Z,23.30
2019-01-25T11:17:56.858Z,23.30
2019-01-25T11:20:25.869Z,23.30
2019-01-25T11:22:54.264Z,23.30
2019-01-25T11:25:25.141Z,23.30
2019-01-25T11:27:53.374Z,23.30
2019-01-25T11:30:21.643Z,23.30
2019-01-25T11:32:49.873Z,23.30
2019-01-25T11:35:18.759Z,23.30
2019-01-25T11:37:46.989Z,23.30
2019-01-25T11:40:21.327Z,23.30
2019-01-25T11:42:49.540Z,23.30
2019-01-25T11:45:18.353Z,23.30
2019-01-25T11:47:46.605Z,23.30
2019-01-25T11:50:17.649Z,23.30
2019-01-25T11:52:45.886Z,23.30
2019-01-25T11:55:16.197Z,23.30
2019-01-25T11:57:44.425Z,23.30
2019-01-25T12:00:24.613Z,23.30
2019-01-25T12:02:52.840Z,23.30
2019-01-25T12:05:22.736Z,23.30
2019-01-25T12:07:51.137Z,23.30
2019-01-25T12:10:25.205Z,23.30
2019-01-25T12:12:53.437Z,23.30
2019-01-25T12:15:21.681Z,23.30
2019-01-25T12:17:49.919Z,23.30
2019-01-25T12:20:29.550Z,23.30
2019-01-25T12:22:58.085Z,23.30
2019-01-25T12:25:26.313Z,23.30
2019-01-25T12:27:54.555Z,23.30
2019-01-25T12:30:25.387Z,23.30
2019-01-25T12:32:53.633Z,23.30
2019-01-25T12:35:22.312Z,23.30
2019-01-25T12:37:50.558Z,23.30
2019-01-25T12:40:20.229Z,23.30
2019-01-25T12:42:48.473Z,23.30
2019-01-25T12:45:22.260Z,23.30
2019-01-25T12:47:50.510Z,23.30
2019-01-25T12:50:24.666Z,23.30
2019-01-25T12:52:52.934Z,23.30
2019-01-25T12:55:21.156Z,23.30
2019-01-25T12:57:49.403Z,23.30
2019-01-25T13:00:20.718Z,23.30
2019-01-25T13:02:48.986Z,23.30
2019-01-25T13:05:18.749Z,23.30
2019-01-25T13:07:46.997Z,23.30
2019-01-25T13:10:17.869Z,23.30
2019-01-25T13:12:46.109Z,23.30
2019-01-25T13:15:14.337Z,23.30
2019-01-25T13:17:42.602Z,23.30
2019-01-25T13:20:16.710Z,23.30
2019-01-25T13:22:45.626Z,23.30
2019-01-25T13:25:13.876Z,23.30
2019-01-25T13:27:42.172Z,23.30
2019-01-25T13:30:13.917Z,23.20
2019-01-25T13:32:42.241Z,23.30
2019-01-25T13:35:10.649Z,23.20
2019-01-25T13:37:38.972Z,23.30
2019-01-25T13:40:15.132Z,23.30
2019-01-25T13:42:43.369Z,23.30
2019-01-25T13:45:14.305Z,23.20
2019-01-25T13:47:42.545Z,23.30
2019-01-25T13:50:16.894Z,23.30
2019-01-25T13:52:45.146Z,23.30
2019-01-25T13:55:14.910Z,23.30
2019-01-25T13:57:43.186Z,23.20
2019-01-25T14:00:29.135Z,23.20
2019-01-25T14:02:57.390Z,23.20
2019-01-25T14:05:25.623Z,23.20
2019-01-25T14:07:53.924Z,23.20
2019-01-25T14:10:28.460Z,23.20
2019-01-25T14:12:56.693Z,23.20
2019-01-25T14:15:24.932Z,23.30
2019-01-25T14:17:53.189Z,23.30
2019-01-25T14:20:26.217Z,23.30
2019-01-25T14:22:54.448Z,23.30
2019-01-25T14:25:22.721Z,23.30
2019-01-25T14:27:50.945Z,23.30
2019-01-25T14:30:34.494Z,23.30
2019-01-25T14:33:02.726Z,23.30
2019-01-25T14:35:30.974Z,23.30
2019-01-25T14:37:59.211Z,23.30
2019-01-25T14:40:27.476Z,23.30
2019-01-25T14:42:55.723Z,23.30
2019-01-25T14:45:24.531Z,23.30
2019-01-25T14:47:52.765Z,23.30
2019-01-25T14:50:31.693Z,23.30
2019-01-25T14:53:00.115Z,23.30
2019-01-25T14:55:28.389Z,23.30
2019-01-25T14:57:56.617Z,23.30
2019-01-25T15:00:24.865Z,23.30
2019-01-25T15:02:53.098Z,23.30
2019-01-25T15:05:21.338Z,23.30
2019-01-25T15:07:49.570Z,23.40
2019-01-25T15:10:19.786Z,23.40
2019-01-25T15:12:49.176Z,23.40
2019-01-25T15:15:17.415Z,23.40
2019-01-25T15:17:45.645Z,23.40
2019-01-25T15:20:22.553Z,23.50
2019-01-25T15:22:50.958Z,23.50
2019-01-25T15:25:19.204Z,23.50
2019-01-25T15:27:47.442Z,23.60
2019-01-25T15:30:18.681Z,23.60
2019-01-25T15:32:46.988Z,23.60
2019-01-25T15:35:16.566Z,23.60
2019-01-25T15:37:44.873Z,23.60
2019-01-25T15:40:15.281Z,23.60
2019-01-25T15:42:43.533Z,23.60
2019-01-25T15:45:14.120Z,23.60
2019-01-25T15:47:42.350Z,23.60
2019-01-25T15:50:16.615Z,23.60
2019-01-25T15:52:44.846Z,23.60
2019-01-25T15:55:13.649Z,23.70
2019-01-25T15:57:41.881Z,23.70
2019-01-25T16:00:12.554Z,23.60
2019-01-25T16:02:40.778Z,23.70
2019-01-25T16:05:11.068Z,23.60
2019-01-25T16:07:39.303Z,23.60
2019-01-25T16:10:15.442Z,23.70
2019-01-25T16:12:43.666Z,23.70
2019-01-25T16:15:20.638Z,23.70
2019-01-25T16:17:48.873Z,23.70
2019-01-25T16:20:18.444Z,23.70
2019-01-25T16:22:47.652Z,23.70
2019-01-25T16:25:22.230Z,23.70
2019-01-25T16:27:50.506Z,23.70
2019-01-25T16:30:21.534Z,23.70
2019-01-25T16:32:49.781Z,23.70
2019-01-25T16:35:18.009Z,23.70
2019-01-25T16:37:46.313Z,23.70
2019-01-25T16:40:22.957Z,23.70
2019-01-25T16:42:51.230Z,23.70
2019-01-25T16:45:25.053Z,23.70
2019-01-25T16:47:53.296Z,23.70
2019-01-25T16:50:23.850Z,23.60
2019-01-25T16:52:52.094Z,23.60
2019-01-25T16:55:20.353Z,23.60
2019-01-25T16:57:48.584Z,23.60
2019-01-25T17:00:30.846Z,23.60
2019-01-25T17:02:59.108Z,23.60
2019-01-25T17:05:27.348Z,23.60
2019-01-25T17:07:55.602Z,23.60
2019-01-25T17:10:23.838Z,23.60
2019-01-25T17:12:52.192Z,23.60
2019-01-25T17:15:20.451Z,23.60
2019-01-25T17:17:48.685Z,23.60
2019-01-25T17:20:21.702Z,23.60
2019-01-25T17:22:50.154Z,23.60
2019-01-25T17:25:18.405Z,23.60
2019-01-25T17:27:46.637Z,23.60
2019-01-25T17:30:18.120Z,23.60
2019-01-25T17:32:46.842Z,23.60
2019-01-25T17:35:15.065Z,23.60
2019-01-25T17:37:43.326Z,23.60
2019-01-25T17:40:23.665Z,23.60
2019-01-25T17:42:51.937Z,23.60
2019-01-25T17:45:20.520Z,23.60
2019-01-25T17:47:49.513Z,23.60
2019-01-25T17:50:17.756Z,23.60
2019-01-25T17:52:46.008Z,23.60
2019-01-25T17:55:15.985Z,23.70
2019-01-25T17:57:44.550Z,23.70
2019-01-25T18:00:28.866Z,23.70
2019-01-25T18:02:57.189Z,23.70
2019-01-25T18:05:25.432Z,23.70
2019-01-25T18:07:53.664Z,23.70
2019-01-25T18:10:23.941Z,23.70
2019-01-25T18:12:52.439Z,23.70
2019-01-25T18:15:20.681Z,23.70
2019-01-25T18:17:48.936Z,23.70
2019-01-25T18:20:19.397Z,23.60
2019-01-25T18:22:47.652Z,23.60
2019-01-25T18:25:37.314Z,23.60
2019-01-25T18:28:08.821Z,23.60
2019-01-25T18:30:55.525Z,23.60
2019-01-25T18:33:23.753Z,23.60
2019-01-25T18:35:52.021Z,23.60
2019-01-25T18:38:20.252Z,23.50
2019-01-25T18:40:48.494Z,23.50
2019-01-25T18:43:17.631Z,23.50
2019-01-25T18:45:46.013Z,23.50
2019-01-25T18:48:14.243Z,23.50
2019-01-25T18:50:42.481Z,23.50
2019-01-25T18:53:10.715Z,23.50
2019-01-25T18:55:38.959Z,23.50
2019-01-25T18:58:07.197Z,23.50
2019-01-25T19:00:36.124Z,23.50
2019-01-25T19:03:05.041Z,23.50
2019-01-25T19:05:33.276Z,23.50
2019-01-25T19:08:01.505Z,23.50
2019-01-25T19:10:30.116Z,23.40
2019-01-25T19:12:58.380Z,23.40
2019-01-25T19:15:32.687Z,23.40
2019-01-25T19:18:00.952Z,23.50
2019-01-25T19:20:29.521Z,23.50
2019-01-25T19:22:57.766Z,23.50
2019-01-25T19:25:26.001Z,23.40
2019-01-25T19:27:54.297Z,23.40
2019-01-25T19:30:30.869Z,23.50
2019-01-25T19:32:59.345Z,23.50
2019-01-25T19:35:27.641Z,23.50
2019-01-25T19:37:55.885Z,23.50
2019-01-25T19:40:32.241Z,23.50
2019-01-25T19:43:00.538Z,23.50
2019-01-25T19:45:28.790Z,23.50
2019-01-25T19:47:57.053Z,23.50
2019-01-25T19:50:25.283Z,23.50
2019-01-25T19:52:53.522Z,23.50
2019-01-25T19:55:24.670Z,23.50
2019-01-25T19:57:52.915Z,23.60
2019-01-25T20:00:24.158Z,23.60
2019-01-25T20:02:52.415Z,23.50
2019-01-25T20:05:25.877Z,23.50
2019-01-25T20:07:54.117Z,23.50
2019-01-25T20:10:22.515Z,23.50
2019-01-25T20:12:50.922Z,23.50
2019-01-25T20:15:26.200Z,23.60
2019-01-25T20:17:54.477Z,23.50
2019-01-25T20:20:28.765Z,23.50
2019-01-25T20:22:57.085Z,23.60
2019-01-25T20:25:25.424Z,23.50
2019-01-25T20:27:53.670Z,23.50
2019-01-25T20:30:24.750Z,23.50
2019-01-25T20:32:53.013Z,23.50
2019-01-25T20:35:29.206Z,23.50
2019-01-25T20:37:57.469Z,23.50
2019-01-25T20:40:25.723Z,23.50
2019-01-25T20:42:54.046Z,23.50
2019-01-25T20:45:30.728Z,23.50
2019-01-25T20:47:58.977Z,23.50
2019-01-25T20:50:28.849Z,23.50
2019-01-25T20:52:57.104Z,23.50
2019-01-25T20:55:25.821Z,23.50
2019-01-25T20:57:54.645Z,23.50
2019-01-25T21:00:29.216Z,23.50
2019-01-25T21:02:57.701Z,23.50
2019-01-25T21:05:25.997Z,23.50
2019-01-25T21:07:54.377Z,23.50
2019-01-25T21:10:24.440Z,23.50
2019-01-25T21:12:52.780Z,23.50
2019-01-25T21:15:23.629Z,23.50
2019-01-25T21:17:51.910Z,23.50
2019-01-25T21:20:32.068Z,23.50
2019-01-25T21:23:00.310Z,23.50
2019-01-25T21:25:29.379Z,23.50
2019-01-25T21:27:57.612Z,23.50
2019-01-25T21:30:33.849Z,23.50
2019-01-25T21:33:02.096Z,23.50
2019-01-25T21:35:30.322Z,23.50
2019-01-25T21:37:58.565Z,23.60
2019-01-25T21:40:28.866Z,23.60
2019-01-25T21:42:58.238Z,23.60
2019-01-25T21:45:28.996Z,23.40
2019-01-25T21:47:57.573Z,23.40
2019-01-25T21:50:34.012Z,23.30
2019-01-25T21:53:02.256Z,23.30
2019-01-25T21:55:30.493Z,23.30
2019-01-25T21:58:05.223Z,23.30
2019-01-25T22:00:30.989Z,23.30
2019-01-25T22:02:59.241Z,23.40
2019-01-25T22:05:27.507Z,23.40
2019-01-25T22:07:55.749Z,23.40
2019-01-25T22:10:29.417Z,23.30
2019-01-25T22:12:57.650Z,23.30
2019-01-25T22:15:25.889Z,23.40
2019-01-25T22:17:54.130Z,23.40
2019-01-25T22:20:24.446Z,23.40
2019-01-25T22:22:52.670Z,23.40
2019-01-25T22:25:21.155Z,23.30
2019-01-25T22:27:51.386Z,23.30
2019-01-25T22:30:21.560Z,23.30
2019-01-25T22:32:49.817Z,23.30
2019-01-25T22:35:18.086Z,23.30
2019-01-25T22:37:46.313Z,23.30
2019-01-25T22:40:20.585Z,23.30
2019-01-25T22:42:48.825Z,23.30
2019-01-25T22:45:19.332Z,23.30
2019-01-25T22:47:47.561Z,23.30
2019-01-25T22:50:18.658Z,23.30
2019-01-25T22:52:46.893Z,23.20
2019-01-25T22:55:16.972Z,23.20
2019-01-25T22:57:45.207Z,23.20
2019-01-25T23:00:54.832Z,23.20
2019-01-25T23:03:35.109Z,23.20
2019-01-25T23:06:35.248Z,23.20
2019-01-25T23:09:12.909Z,23.20
2019-01-25T23:11:41.149Z,23.10
2019-01-25T23:14:09.392Z,23.10
2019-01-25T23:16:37.625Z,23.10
2019-01-25T23:19:06.168Z,23.10
2019-01-25T23:21:34.458Z,23.10
2019-01-25T23:24:03.225Z,23.10
2019-01-25T23:26:31.470Z,23.00
2019-01-25T23:28:59.700Z,23.00
2019-01-25T23:31:27.950Z,23.00
2019-01-25T23:33:56.173Z,23.00
2019-01-25T23:36:24.414Z,23.00
2019-01-25T23:38:52.644Z,23.00
2019-01-25T23:41:20.976Z,23.00
2019-01-25T23:43:49.193Z,23.00
2019-01-25T23:46:17.441Z,23.00
2019-01-25T23:48:45.677Z,23.00
2019-01-25T23:51:14.590Z,23.10
2019-01-25T23:53:42.846Z,23.10
2019-01-25T23:56:11.080Z,23.00
2019-01-25T23:58:39.321Z,23.00
